createdAt,value
2022-08-27T00:03:04.015Z,94.41
2022-08-27T00:08:06.532Z,94.40
2022-08-27T00:13:08.439Z,94.10
2022-08-27T00:18:09.835Z,94.04
2022-08-27T00:23:10.895Z,93.93
2022-08-27T00:28:12.350Z,93.80
2022-08-27T00:33:13.483Z,93.38
2022-08-27T00:38:14.857Z,93.99
2022-08-27T00:43:25.206Z,93.35
2022-08-27T00:48:29.692Z,94.29
2022-08-27T00:53:32.804Z,94.96
2022-08-27T00:58:46.005Z,95.26
2022-08-27T01:03:50.578Z,95.28
2022-08-27T01:08:56.468Z,95.17
2022-08-27T01:13:59.610Z,94.66
2022-08-27T01:19:06.885Z,95.36
2022-08-27T01:24:44.864Z,94.60
2022-08-27T01:29:47.139Z,95.69
2022-08-27T01:34:48.968Z,95.47
2022-08-27T01:39:50.265Z,96.42
2022-08-27T01:44:57.812Z,97.04
2022-08-27T01:50:00.206Z,96.85
2022-08-27T01:55:01.697Z,96.55
2022-08-27T02:00:08.825Z,96.97
2022-08-27T02:05:13.303Z,97.05
2022-08-27T02:10:22.994Z,96.37
2022-08-27T02:15:25.360Z,96.38
2022-08-27T02:20:29.316Z,96.62
2022-08-27T02:25:31.000Z,97.52
2022-08-27T02:30:33.624Z,98.12
2022-08-27T02:35:43.146Z,98.90
2022-08-27T02:40:44.075Z,98.69
2022-08-27T02:45:45.317Z,98.44
2022-08-27T02:50:46.354Z,98.25
2022-08-27T02:55:47.300Z,98.96
2022-08-27T03:00:48.173Z,98.99
2022-08-27T03:05:49.469Z,98.88
2022-08-27T03:10:51.101Z,100.00
2022-08-27T03:15:52.846Z,100.00
2022-08-27T03:20:55.597Z,100.00
2022-08-27T03:25:59.159Z,100.00
2022-08-27T03:31:03.342Z,100.00
2022-08-27T03:36:06.881Z,100.00
2022-08-27T03:41:07.674Z,100.00
2022-08-27T03:46:08.776Z,100.00
2022-08-27T03:51:12.679Z,100.00
2022-08-27T03:56:14.263Z,100.00
2022-08-27T04:01:16.389Z,100.00
2022-08-27T04:06:17.457Z,100.00
2022-08-27T04:11:18.402Z,100.00
2022-08-27T04:16:19.288Z,100.00
2022-08-27T04:21:22.356Z,100.00
2022-08-27T04:26:23.246Z,100.00
2022-08-27T04:31:25.434Z,100.00
2022-08-27T04:36:26.740Z,100.00
2022-08-27T04:41:28.601Z,100.00
2022-08-27T04:46:32.618Z,100.00
2022-08-27T04:51:34.264Z,100.00
2022-08-27T04:56:37.392Z,100.00
2022-08-27T05:01:42.291Z,100.00
2022-08-27T05:06:45.315Z,100.00
2022-08-27T05:11:47.159Z,100.00
2022-08-27T05:16:48.155Z,100.00
2022-08-27T05:21:51.032Z,100.00
2022-08-27T05:26:52.025Z,100.00
2022-08-27T05:31:54.639Z,100.00
2022-08-27T05:36:55.688Z,100.00
2022-08-27T05:41:57.327Z,100.00
2022-08-27T05:46:58.257Z,100.00
2022-08-27T05:51:59.314Z,100.00
2022-08-27T05:57:00.190Z,100.00
2022-08-27T06:02:02.063Z,100.00
2022-08-27T06:07:03.699Z,100.00
2022-08-27T06:12:06.101Z,100.00
2022-08-27T06:17:07.033Z,100.00
2022-08-27T06:22:10.395Z,100.00
2022-08-27T06:27:15.457Z,100.00
2022-08-27T06:32:16.300Z,100.00
2022-08-27T06:37:17.400Z,100.00
2022-08-27T06:42:18.233Z,100.00
2022-08-27T06:47:22.053Z,100.00
2022-08-27T06:52:22.913Z,100.00
2022-08-27T06:57:23.995Z,100.00
2022-08-27T07:02:25.310Z,100.00
2022-08-27T07:07:27.237Z,100.00
2022-08-27T07:12:35.492Z,100.00
2022-08-27T07:17:36.415Z,100.00
2022-08-27T07:22:40.036Z,100.00
2022-08-27T07:27:41.099Z,100.00
2022-08-27T07:32:45.297Z,100.00
2022-08-27T07:37:46.225Z,100.00
2022-08-27T07:43:05.767Z,100.00
2022-08-27T07:48:06.676Z,100.00
2022-08-27T07:53:07.860Z,100.00
2022-08-27T07:58:11.540Z,100.00
2022-08-27T08:03:13.404Z,100.00
2022-08-27T08:08:15.106Z,100.00
2022-08-27T08:13:17.820Z,100.00
2022-08-27T08:18:18.846Z,100.00
2022-08-27T08:23:21.107Z,100.00
2022-08-27T08:28:21.907Z,100.00
2022-08-27T08:33:23.615Z,100.00
2022-08-27T08:38:25.373Z,100.00
2022-08-27T08:43:36.790Z,100.00
2022-08-27T08:48:43.047Z,100.00
2022-08-27T08:53:52.283Z,100.00
2022-08-27T08:59:02.694Z,100.00
2022-08-27T09:04:06.517Z,100.00
2022-08-27T09:09:53.816Z,100.00
2022-08-27T09:15:05.034Z,100.00
2022-08-27T09:20:07.853Z,100.00
2022-08-27T09:25:31.066Z,100.00
2022-08-27T09:30:42.434Z,100.00
2022-08-27T09:35:45.812Z,100.00
2022-08-27T09:40:51.184Z,100.00
2022-08-27T09:45:55.777Z,100.00
2022-08-27T09:51:01.790Z,100.00
2022-08-27T09:56:09.212Z,99.80
2022-08-27T10:01:22.253Z,99.09
2022-08-27T10:06:28.534Z,96.33
2022-08-27T10:11:35.299Z,93.93
2022-08-27T10:17:04.780Z,92.79
2022-08-27T10:22:33.301Z,90.30
2022-08-27T10:29:20.278Z,91.83
2022-08-27T10:34:49.672Z,90.52
2022-08-27T10:40:22.738Z,89.31
2022-08-27T10:45:46.534Z,90.48
2022-08-27T10:52:09.384Z,90.24
2022-08-27T10:57:58.879Z,88.51
2022-08-27T11:03:08.375Z,87.67
2022-08-27T11:08:40.476Z,84.43
2022-08-27T11:13:50.798Z,81.83
2022-08-27T11:18:57.525Z,77.73
2022-08-27T11:24:08.199Z,76.95
2022-08-27T11:29:26.367Z,76.02
2022-08-27T11:34:45.776Z,76.18
2022-08-27T11:41:44.615Z,75.25
2022-08-27T11:46:49.414Z,73.17
2022-08-27T11:52:03.713Z,72.72
2022-08-27T11:57:14.704Z,74.14
2022-08-27T12:02:26.249Z,76.33
2022-08-27T12:07:32.613Z,78.87
2022-08-27T12:15:16.671Z,79.15
2022-08-27T12:20:41.330Z,75.22
2022-08-27T12:25:42.564Z,73.40
2022-08-27T12:30:53.389Z,73.20
2022-08-27T12:35:57.231Z,71.98
2022-08-27T12:41:03.209Z,73.77
2022-08-27T12:46:13.144Z,72.18
2022-08-27T12:51:26.238Z,73.19
2022-08-27T12:58:15.687Z,75.12
2022-08-27T13:03:34.730Z,70.45
2022-08-27T13:08:35.663Z,69.92
2022-08-27T13:13:36.714Z,69.77
2022-08-27T13:18:39.096Z,70.18
2022-08-27T13:23:46.672Z,70.85
2022-08-27T13:28:48.942Z,71.74
2022-08-27T13:33:50.217Z,71.73
2022-08-27T13:38:51.604Z,70.71
2022-08-27T13:43:57.075Z,68.86
2022-08-27T13:49:00.342Z,70.37
2022-08-27T13:54:15.354Z,68.25
2022-08-27T13:59:26.525Z,68.72
2022-08-27T14:05:02.462Z,67.52
2022-08-27T14:10:45.521Z,66.01
2022-08-27T14:15:58.644Z,63.92
2022-08-27T14:21:01.594Z,65.22
2022-08-27T14:26:02.557Z,65.21
2022-08-27T14:31:03.803Z,66.29
2022-08-27T14:36:05.635Z,68.58
2022-08-27T14:41:06.874Z,69.69
2022-08-27T14:46:18.425Z,68.97
2022-08-27T14:51:25.683Z,67.75
2022-08-27T14:56:26.595Z,67.16
2022-08-27T15:01:28.722Z,69.93
2022-08-27T15:06:29.618Z,71.32
2022-08-27T15:11:33.544Z,69.78
2022-08-27T15:16:38.403Z,70.25
2022-08-27T15:21:40.576Z,70.86
2022-08-27T15:26:41.443Z,68.98
2022-08-27T15:31:42.757Z,70.34
2022-08-27T15:36:43.792Z,69.12
2022-08-27T15:42:05.925Z,68.79
2022-08-27T15:47:07.451Z,68.80
2022-08-27T15:52:11.795Z,69.97
2022-08-27T15:57:19.699Z,70.26
2022-08-27T16:02:23.307Z,70.64
2022-08-27T16:07:24.156Z,71.62
2022-08-27T16:12:27.402Z,70.38
2022-08-27T16:17:28.720Z,70.89
2022-08-27T16:22:29.742Z,70.93
2022-08-27T16:27:30.645Z,71.62
2022-08-27T16:32:32.108Z,71.66
2022-08-27T16:37:32.943Z,72.06
2022-08-27T16:42:34.833Z,73.22
2022-08-27T16:50:32.635Z,72.78
2022-08-27T16:55:34.165Z,73.60
2022-08-27T17:00:38.150Z,74.09
2022-08-27T17:05:39.090Z,74.48
2022-08-27T17:10:45.812Z,75.75
2022-08-27T17:15:52.883Z,76.44
2022-08-27T17:20:56.269Z,77.11
2022-08-27T17:25:57.114Z,77.18
2022-08-27T17:31:01.007Z,78.36
2022-08-27T17:36:04.567Z,78.64
2022-08-27T17:41:34.080Z,79.51
2022-08-27T17:46:36.078Z,80.46
2022-08-27T17:51:36.981Z,82.37
2022-08-27T17:56:39.346Z,83.24
2022-08-27T18:01:40.600Z,84.09
2022-08-27T18:06:41.835Z,84.51
2022-08-27T18:11:44.584Z,85.46
2022-08-27T18:16:45.465Z,86.25
2022-08-27T18:21:47.169Z,87.11
2022-08-27T18:26:48.724Z,87.95
2022-08-27T18:31:49.754Z,88.46
2022-08-27T18:36:50.658Z,89.09
2022-08-27T18:41:53.439Z,89.28
2022-08-27T18:46:54.288Z,89.81
2022-08-27T18:51:55.442Z,89.90
2022-08-27T18:56:56.266Z,90.70
2022-08-27T19:01:57.385Z,91.64
2022-08-27T19:06:58.552Z,91.82
2022-08-27T19:11:59.753Z,92.60
2022-08-27T19:17:01.993Z,92.71
2022-08-27T19:22:05.847Z,92.68
2022-08-27T19:27:08.649Z,93.77
2022-08-27T19:32:10.372Z,92.81
2022-08-27T19:37:21.319Z,94.22
2022-08-27T19:42:22.461Z,94.07
2022-08-27T19:47:25.253Z,94.06
2022-08-27T19:52:26.147Z,94.26
2022-08-27T19:57:27.087Z,94.25
2022-08-27T20:02:27.949Z,94.33
2022-08-27T20:07:28.971Z,94.82
2022-08-27T20:12:29.975Z,94.45
2022-08-27T20:17:32.291Z,95.53
2022-08-27T20:22:33.570Z,94.50
2022-08-27T20:27:34.938Z,95.08
2022-08-27T20:32:35.956Z,94.57
2022-08-27T20:37:41.920Z,94.96
2022-08-27T20:42:43.799Z,94.76
2022-08-27T20:47:47.095Z,94.60
2022-08-27T20:52:48.996Z,94.40
2022-08-27T20:58:08.852Z,93.13
2022-08-27T21:03:11.985Z,93.14
2022-08-27T21:08:14.554Z,92.43
2022-08-27T21:13:16.605Z,92.31
2022-08-27T21:18:18.834Z,91.85
2022-08-27T21:23:21.484Z,92.11
2022-08-27T21:28:22.682Z,91.45
2022-08-27T21:33:23.592Z,91.41
2022-08-27T21:38:24.586Z,90.98
2022-08-27T21:43:25.438Z,90.80
2022-08-27T21:48:26.551Z,90.94
2022-08-27T21:53:29.320Z,90.54
2022-08-27T21:58:30.191Z,89.68
2022-08-27T22:03:33.173Z,88.81
2022-08-27T22:08:34.238Z,89.53
2022-08-27T22:13:35.964Z,89.54
2022-08-27T22:18:36.861Z,90.38
2022-08-27T22:23:39.856Z,91.13
2022-08-27T22:28:46.467Z,90.07
2022-08-27T22:33:47.386Z,89.50
2022-08-27T22:38:48.374Z,90.23
2022-08-27T22:43:51.094Z,89.02
2022-08-27T22:48:57.681Z,88.89
2022-08-27T22:53:58.527Z,89.68
2022-08-27T22:58:59.811Z,89.93
2022-08-27T23:04:01.218Z,88.93
2022-08-27T23:09:02.583Z,87.76
2022-08-27T23:14:03.529Z,88.08
2022-08-27T23:19:04.393Z,89.08
2022-08-27T23:24:05.457Z,89.89
2022-08-27T23:29:06.942Z,89.64
2022-08-27T23:34:07.777Z,90.21
2022-08-27T23:39:09.974Z,90.08
2022-08-27T23:44:11.228Z,90.34
2022-08-27T23:49:12.506Z,90.18
2022-08-27T23:54:13.341Z,90.70
2022-08-27T23:59:14.201Z,91.84
